首页
METAR-TAF:

METAR-TAF

机场 :

West Point, 弗吉尼亚州, 美国

Middle Peninsula Regional Airport

纬度: 37-31-16N, 经度: 076-45-52W, 海拔: 7米

当前天气观测

该预报发布于13分钟前的14:15 UTC
风速10节,风向,有时为15节阵风
温度 14°C
湿度 82%
气压 1023 hPa
能見度: 11.3公里
散云层高于2600英尺
阴天层高于3300英尺

METAR: KFYJ 241415Z AUTO 10010G15KT 7SM SCT026 OVC033 14/11 A3022 RMK AO2 P0001 T01370110

时间: 10:28 (14:28 UTC)


TAF: 丢失

超过4000个机场的气象观测和天气预报(METAR&TAF报告)。

可查询的气象台以黄色和红色小点在地图上表示。

将鼠标移到小点上方,可查看气象台名称。

然后点击查看天气观测和预报。

如需切换地图:点击带黑十字的绿色按钮放大地图;点击带横线的绿色按钮缩小地图;或者点击绿色箭头查看邻近地区的地图。


METAR-TAF: